sensor_id;sensor_type;location;lat;lon;timestamp;P1;durP1;ratioP1;P2;durP2;ratioP2
55467;SDS011;41332;42.702;23.200;2023-06-14T00:00:37;6.30;;;4.40;;
55467;SDS011;41332;42.702;23.200;2023-06-14T00:03:06;4.50;;;4.10;;
55467;SDS011;41332;42.702;23.200;2023-06-14T00:05:34;4.25;;;3.88;;
55467;SDS011;41332;42.702;23.200;2023-06-14T00:08:05;4.90;;;3.55;;
55467;SDS011;41332;42.702;23.200;2023-06-14T00:10:33;3.92;;;3.53;;
55467;SDS011;41332;42.702;23.200;2023-06-14T00:13:00;3.78;;;3.38;;
55467;SDS011;41332;42.702;23.200;2023-06-14T00:15:30;3.75;;;3.45;;
55467;SDS011;41332;42.702;23.200;2023-06-14T00:17:56;5.30;;;3.97;;
55467;SDS011;41332;42.702;23.200;2023-06-14T00:20:25;4.10;;;3.65;;
55467;SDS011;41332;42.702;23.200;2023-06-14T00:22:55;5.70;;;5.15;;
55467;SDS011;41332;42.702;23.200;2023-06-14T00:25:24;6.22;;;3.10;;
55467;SDS011;41332;42.702;23.200;2023-06-14T00:27:53;4.03;;;2.63;;
55467;SDS011;41332;42.702;23.200;2023-06-14T00:30:21;4.00;;;3.50;;
55467;SDS011;41332;42.702;23.200;2023-06-14T00:32:47;3.50;;;2.88;;
55467;SDS011;41332;42.702;23.200;2023-06-14T00:35:13;4.07;;;3.63;;
55467;SDS011;41332;42.702;23.200;2023-06-14T00:37:39;3.88;;;3.58;;
55467;SDS011;41332;42.702;23.200;2023-06-14T00:40:04;3.42;;;3.13;;
55467;SDS011;41332;42.702;23.200;2023-06-14T00:42:31;4.70;;;3.53;;
55467;SDS011;41332;42.702;23.200;2023-06-14T00:44:57;4.28;;;2.88;;
55467;SDS011;41332;42.702;23.200;2023-06-14T00:47:23;3.88;;;3.58;;
55467;SDS011;41332;42.702;23.200;2023-06-14T00:49:51;4.13;;;3.72;;
55467;SDS011;41332;42.702;23.200;2023-06-14T00:52:18;4.13;;;3.72;;
55467;SDS011;41332;42.702;23.200;2023-06-14T00:54:47;4.50;;;3.28;;
55467;SDS011;41332;42.702;23.200;2023-06-14T00:57:13;4.20;;;3.53;;
55467;SDS011;41332;42.702;23.200;2023-06-14T00:59:43;4.30;;;3.85;;
55467;SDS011;41332;42.702;23.200;2023-06-14T01:02:10;4.50;;;3.85;;
55467;SDS011;41332;42.702;23.200;2023-06-14T01:04:36;4.63;;;4.22;;
55467;SDS011;41332;42.702;23.200;2023-06-14T01:14:54;7.47;;;4.45;;
55467;SDS011;41332;42.702;23.200;2023-06-14T01:19:48;4.97;;;3.50;;
55467;SDS011;41332;42.702;23.200;2023-06-14T01:22:14;6.68;;;3.63;;
55467;SDS011;41332;42.702;23.200;2023-06-14T01:24:42;4.32;;;3.60;;
55467;SDS011;41332;42.702;23.200;2023-06-14T01:27:09;3.72;;;3.42;;
55467;SDS011;41332;42.702;23.200;2023-06-14T01:32:03;3.22;;;2.92;;
55467;SDS011;41332;42.702;23.200;2023-06-14T01:34:30;4.72;;;3.70;;
55467;SDS011;41332;42.702;23.200;2023-06-14T01:36:56;3.80;;;3.40;;
55467;SDS011;41332;42.702;23.200;2023-06-14T01:39:22;7.97;;;3.45;;
55467;SDS011;41332;42.702;23.200;2023-06-14T01:41:49;3.40;;;3.20;;
55467;SDS011;41332;42.702;23.200;2023-06-14T01:44:16;4.22;;;3.05;;
55467;SDS011;41332;42.702;23.200;2023-06-14T01:46:43;3.53;;;2.88;;
55467;SDS011;41332;42.702;23.200;2023-06-14T01:49:09;3.47;;;3.17;;
55467;SDS011;41332;42.702;23.200;2023-06-14T01:51:34;4.53;;;2.80;;
55467;SDS011;41332;42.702;23.200;2023-06-14T01:54:00;4.28;;;3.60;;
55467;SDS011;41332;42.702;23.200;2023-06-14T01:56:26;3.75;;;3.35;;
55467;SDS011;41332;42.702;23.200;2023-06-14T01:58:52;4.45;;;3.42;;
55467;SDS011;41332;42.702;23.200;2023-06-14T02:01:18;3.63;;;3.33;;
55467;SDS011;41332;42.702;23.200;2023-06-14T02:03:46;4.15;;;3.53;;
55467;SDS011;41332;42.702;23.200;2023-06-14T02:06:12;4.35;;;3.78;;
55467;SDS011;41332;42.702;23.200;2023-06-14T02:08:37;4.30;;;3.90;;
55467;SDS011;41332;42.702;23.200;2023-06-14T02:11:02;5.15;;;3.40;;
55467;SDS011;41332;42.702;23.200;2023-06-14T02:13:28;4.13;;;3.10;;
55467;SDS011;41332;42.702;23.200;2023-06-14T02:15:53;4.15;;;3.72;;
55467;SDS011;41332;42.702;23.200;2023-06-14T02:18:19;3.38;;;3.10;;
55467;SDS011;41332;42.702;23.200;2023-06-14T02:20:46;5.43;;;4.00;;
55467;SDS011;41332;42.702;23.200;2023-06-14T02:23:12;7.50;;;4.55;;
55467;SDS011;41332;42.702;23.200;2023-06-14T02:25:37;6.45;;;3.60;;
55467;SDS011;41332;42.702;23.200;2023-06-14T02:28:04;3.65;;;3.35;;
55467;SDS011;41332;42.702;23.200;2023-06-14T02:30:30;4.60;;;3.60;;
55467;SDS011;41332;42.702;23.200;2023-06-14T02:32:56;5.40;;;3.80;;
55467;SDS011;41332;42.702;23.200;2023-06-14T02:35:22;3.95;;;3.58;;
55467;SDS011;41332;42.702;23.200;2023-06-14T02:37:51;3.92;;;3.60;;
55467;SDS011;41332;42.702;23.200;2023-06-14T02:40:17;4.75;;;3.47;;
55467;SDS011;41332;42.702;23.200;2023-06-14T02:42:43;5.78;;;4.60;;
55467;SDS011;41332;42.702;23.200;2023-06-14T02:45:09;6.63;;;3.70;;
55467;SDS011;41332;42.702;23.200;2023-06-14T02:47:35;3.83;;;3.35;;
55467;SDS011;41332;42.702;23.200;2023-06-14T02:50:00;4.20;;;3.35;;
55467;SDS011;41332;42.702;23.200;2023-06-14T02:52:26;4.03;;;3.63;;
55467;SDS011;41332;42.702;23.200;2023-06-14T02:54:51;5.00;;;3.90;;
55467;SDS011;41332;42.702;23.200;2023-06-14T02:57:17;8.63;;;3.40;;
55467;SDS011;41332;42.702;23.200;2023-06-14T02:59:42;4.88;;;3.45;;
55467;SDS011;41332;42.702;23.200;2023-06-14T03:02:07;7.47;;;3.88;;
55467;SDS011;41332;42.702;23.200;2023-06-14T03:04:33;4.07;;;3.60;;
55467;SDS011;41332;42.702;23.200;2023-06-14T03:07:02;4.30;;;3.50;;
55467;SDS011;41332;42.702;23.200;2023-06-14T03:09:34;5.03;;;4.15;;
55467;SDS011;41332;42.702;23.200;2023-06-14T03:12:03;6.47;;;3.75;;
55467;SDS011;41332;42.702;23.200;2023-06-14T03:14:29;7.33;;;3.77;;
55467;SDS011;41332;42.702;23.200;2023-06-14T03:16:55;6.22;;;4.78;;
55467;SDS011;41332;42.702;23.200;2023-06-14T03:19:24;11.95;;;3.70;;
55467;SDS011;41332;42.702;23.200;2023-06-14T03:21:51;3.60;;;3.30;;
55467;SDS011;41332;42.702;23.200;2023-06-14T03:24:17;5.13;;;4.18;;
55467;SDS011;41332;42.702;23.200;2023-06-14T03:26:42;3.63;;;3.33;;
55467;SDS011;41332;42.702;23.200;2023-06-14T03:29:07;4.85;;;3.63;;
55467;SDS011;41332;42.702;23.200;2023-06-14T03:31:34;3.85;;;3.45;;
55467;SDS011;41332;42.702;23.200;2023-06-14T03:34:00;4.32;;;3.85;;
55467;SDS011;41332;42.702;23.200;2023-06-14T03:36:26;3.78;;;3.42;;
55467;SDS011;41332;42.702;23.200;2023-06-14T03:38:53;4.80;;;3.50;;
55467;SDS011;41332;42.702;23.200;2023-06-14T03:41:18;3.53;;;3.22;;
55467;SDS011;41332;42.702;23.200;2023-06-14T03:43:44;4.00;;;3.40;;
55467;SDS011;41332;42.702;23.200;2023-06-14T03:46:09;5.70;;;3.83;;
55467;SDS011;41332;42.702;23.200;2023-06-14T03:48:35;4.22;;;3.40;;
55467;SDS011;41332;42.702;23.200;2023-06-14T03:51:00;3.17;;;2.88;;
55467;SDS011;41332;42.702;23.200;2023-06-14T03:53:26;3.90;;;3.05;;
55467;SDS011;41332;42.702;23.200;2023-06-14T03:55:53;3.58;;;3.05;;
55467;SDS011;41332;42.702;23.200;2023-06-14T03:58:19;3.10;;;2.88;;
55467;SDS011;41332;42.702;23.200;2023-06-14T04:00:44;4.05;;;3.63;;
55467;SDS011;41332;42.702;23.200;2023-06-14T04:03:11;3.97;;;3.57;;
55467;SDS011;41332;42.702;23.200;2023-06-14T04:05:38;3.70;;;3.38;;
55467;SDS011;41332;42.702;23.200;2023-06-14T04:08:07;4.18;;;3.22;;
55467;SDS011;41332;42.702;23.200;2023-06-14T04:10:34;5.75;;;4.32;;
55467;SDS011;41332;42.702;23.200;2023-06-14T04:12:59;2.95;;;2.75;;
55467;SDS011;41332;42.702;23.200;2023-06-14T04:15:25;3.50;;;3.20;;
55467;SDS011;41332;42.702;23.200;2023-06-14T04:17:50;3.30;;;3.00;;
55467;SDS011;41332;42.702;23.200;2023-06-14T04:20:16;3.55;;;3.15;;
55467;SDS011;41332;42.702;23.200;2023-06-14T04:22:42;6.35;;;4.05;;
55467;SDS011;41332;42.702;23.200;2023-06-14T04:25:08;4.13;;;3.65;;
55467;SDS011;41332;42.702;23.200;2023-06-14T04:27:33;3.60;;;3.30;;
55467;SDS011;41332;42.702;23.200;2023-06-14T04:32:28;6.80;;;3.63;;
55467;SDS011;41332;42.702;23.200;2023-06-14T04:35:08;3.22;;;2.92;;
55467;SDS011;41332;42.702;23.200;2023-06-14T04:37:34;5.88;;;3.55;;
55467;SDS011;41332;42.702;23.200;2023-06-14T04:39:59;3.53;;;3.22;;
55467;SDS011;41332;42.702;23.200;2023-06-14T04:42:25;6.85;;;3.60;;
55467;SDS011;41332;42.702;23.200;2023-06-14T04:44:56;4.22;;;3.72;;
55467;SDS011;41332;42.702;23.200;2023-06-14T04:47:21;7.38;;;4.30;;
55467;SDS011;41332;42.702;23.200;2023-06-14T04:49:47;7.15;;;3.88;;
55467;SDS011;41332;42.702;23.200;2023-06-14T04:52:12;3.85;;;3.55;;
55467;SDS011;41332;42.702;23.200;2023-06-14T04:54:38;5.47;;;2.78;;
55467;SDS011;41332;42.702;23.200;2023-06-14T04:57:07;7.28;;;3.40;;
55467;SDS011;41332;42.702;23.200;2023-06-14T04:59:34;5.07;;;3.37;;
55467;SDS011;41332;42.702;23.200;2023-06-14T05:02:00;3.50;;;3.20;;
55467;SDS011;41332;42.702;23.200;2023-06-14T05:04:26;3.92;;;3.60;;
55467;SDS011;41332;42.702;23.200;2023-06-14T05:06:53;3.85;;;3.47;;
55467;SDS011;41332;42.702;23.200;2023-06-14T05:09:19;5.88;;;3.60;;
55467;SDS011;41332;42.702;23.200;2023-06-14T05:11:46;6.40;;;3.77;;
55467;SDS011;41332;42.702;23.200;2023-06-14T05:14:12;8.13;;;5.10;;
55467;SDS011;41332;42.702;23.200;2023-06-14T05:16:38;4.53;;;4.07;;
55467;SDS011;41332;42.702;23.200;2023-06-14T05:19:04;5.18;;;4.47;;
55467;SDS011;41332;42.702;23.200;2023-06-14T05:21:30;7.25;;;4.63;;
55467;SDS011;41332;42.702;23.200;2023-06-14T05:23:57;10.68;;;5.28;;
55467;SDS011;41332;42.702;23.200;2023-06-14T05:26:22;5.20;;;4.70;;
55467;SDS011;41332;42.702;23.200;2023-06-14T05:28:50;4.55;;;4.15;;
55467;SDS011;41332;42.702;23.200;2023-06-14T05:33:42;4.72;;;4.30;;
55467;SDS011;41332;42.702;23.200;2023-06-14T05:36:08;4.32;;;3.92;;
55467;SDS011;41332;42.702;23.200;2023-06-14T05:38:33;7.25;;;4.65;;
55467;SDS011;41332;42.702;23.200;2023-06-14T05:40:59;4.28;;;3.88;;
55467;SDS011;41332;42.702;23.200;2023-06-14T05:43:24;5.07;;;4.30;;
55467;SDS011;41332;42.702;23.200;2023-06-14T05:45:49;4.75;;;4.05;;
55467;SDS011;41332;42.702;23.200;2023-06-14T05:48:15;4.30;;;3.90;;
55467;SDS011;41332;42.702;23.200;2023-06-14T05:50:40;4.88;;;4.47;;
55467;SDS011;41332;42.702;23.200;2023-06-14T05:53:06;5.25;;;4.07;;
55467;SDS011;41332;42.702;23.200;2023-06-14T05:55:31;5.43;;;4.97;;
55467;SDS011;41332;42.702;23.200;2023-06-14T05:57:56;5.00;;;4.55;;
55467;SDS011;41332;42.702;23.200;2023-06-14T06:00:22;4.88;;;4.38;;
55467;SDS011;41332;42.702;23.200;2023-06-14T06:02:47;5.47;;;4.03;;
55467;SDS011;41332;42.702;23.200;2023-06-14T06:05:13;4.25;;;3.95;;
55467;SDS011;41332;42.702;23.200;2023-06-14T06:07:38;6.50;;;4.30;;
55467;SDS011;41332;42.702;23.200;2023-06-14T06:10:10;4.55;;;4.15;;
55467;SDS011;41332;42.702;23.200;2023-06-14T06:12:36;5.97;;;4.53;;
55467;SDS011;41332;42.702;23.200;2023-06-14T06:15:02;5.65;;;5.00;;
55467;SDS011;41332;42.702;23.200;2023-06-14T06:17:28;5.65;;;5.15;;
55467;SDS011;41332;42.702;23.200;2023-06-14T06:19:53;5.30;;;4.53;;
55467;SDS011;41332;42.702;23.200;2023-06-14T06:22:19;7.82;;;5.03;;
55467;SDS011;41332;42.702;23.200;2023-06-14T06:24:45;7.85;;;4.75;;
55467;SDS011;41332;42.702;23.200;2023-06-14T06:27:10;6.03;;;4.65;;
55467;SDS011;41332;42.702;23.200;2023-06-14T06:29:37;5.30;;;4.78;;
55467;SDS011;41332;42.702;23.200;2023-06-14T06:32:03;4.68;;;4.28;;
55467;SDS011;41332;42.702;23.200;2023-06-14T06:34:28;4.75;;;4.30;;
55467;SDS011;41332;42.702;23.200;2023-06-14T06:36:54;6.07;;;5.00;;
55467;SDS011;41332;42.702;23.200;2023-06-14T06:39:20;8.25;;;5.40;;
55467;SDS011;41332;42.702;23.200;2023-06-14T06:41:45;5.50;;;4.85;;
55467;SDS011;41332;42.702;23.200;2023-06-14T06:44:11;5.43;;;4.90;;
55467;SDS011;41332;42.702;23.200;2023-06-14T06:46:37;5.65;;;5.03;;
55467;SDS011;41332;42.702;23.200;2023-06-14T06:49:06;8.10;;;6.00;;
55467;SDS011;41332;42.702;23.200;2023-06-14T06:51:31;4.78;;;4.38;;
55467;SDS011;41332;42.702;23.200;2023-06-14T06:53:57;6.03;;;4.78;;
55467;SDS011;41332;42.702;23.200;2023-06-14T06:56:23;7.38;;;5.68;;
55467;SDS011;41332;42.702;23.200;2023-06-14T06:58:49;6.82;;;6.10;;
55467;SDS011;41332;42.702;23.200;2023-06-14T07:01:15;6.90;;;5.10;;
55467;SDS011;41332;42.702;23.200;2023-06-14T07:03:41;6.70;;;5.82;;
55467;SDS011;41332;42.702;23.200;2023-06-14T07:06:07;7.47;;;5.57;;
55467;SDS011;41332;42.702;23.200;2023-06-14T07:08:32;6.03;;;5.25;;
55467;SDS011;41332;42.702;23.200;2023-06-14T07:10:58;6.50;;;6.00;;
55467;SDS011;41332;42.702;23.200;2023-06-14T07:13:23;8.57;;;6.43;;
55467;SDS011;41332;42.702;23.200;2023-06-14T07:15:48;5.55;;;5.05;;
55467;SDS011;41332;42.702;23.200;2023-06-14T07:18:14;7.35;;;5.90;;
55467;SDS011;41332;42.702;23.200;2023-06-14T07:20:40;5.93;;;5.40;;
55467;SDS011;41332;42.702;23.200;2023-06-14T07:23:05;7.53;;;5.40;;
55467;SDS011;41332;42.702;23.200;2023-06-14T07:25:31;10.27;;;5.43;;
55467;SDS011;41332;42.702;23.200;2023-06-14T07:27:56;8.07;;;5.30;;
55467;SDS011;41332;42.702;23.200;2023-06-14T07:30:22;5.25;;;4.75;;
55467;SDS011;41332;42.702;23.200;2023-06-14T07:32:51;7.28;;;6.03;;
55467;SDS011;41332;42.702;23.200;2023-06-14T07:35:17;8.50;;;5.83;;
55467;SDS011;41332;42.702;23.200;2023-06-14T07:37:42;5.63;;;5.10;;
55467;SDS011;41332;42.702;23.200;2023-06-14T07:40:08;9.65;;;6.80;;
55467;SDS011;41332;42.702;23.200;2023-06-14T07:42:35;8.27;;;6.45;;
55467;SDS011;41332;42.702;23.200;2023-06-14T07:45:01;5.95;;;5.45;;
55467;SDS011;41332;42.702;23.200;2023-06-14T07:47:27;6.75;;;6.13;;
55467;SDS011;41332;42.702;23.200;2023-06-14T07:49:52;10.27;;;6.88;;
55467;SDS011;41332;42.702;23.200;2023-06-14T07:52:18;8.02;;;5.82;;
55467;SDS011;41332;42.702;23.200;2023-06-14T07:54:43;7.15;;;6.45;;
55467;SDS011;41332;42.702;23.200;2023-06-14T07:57:08;7.57;;;6.88;;
55467;SDS011;41332;42.702;23.200;2023-06-14T07:59:34;7.85;;;6.95;;
55467;SDS011;41332;42.702;23.200;2023-06-14T08:02:00;9.50;;;6.30;;
55467;SDS011;41332;42.702;23.200;2023-06-14T08:04:25;7.22;;;6.53;;
55467;SDS011;41332;42.702;23.200;2023-06-14T08:06:51;11.40;;;8.80;;
55467;SDS011;41332;42.702;23.200;2023-06-14T08:09:16;8.55;;;7.55;;
55467;SDS011;41332;42.702;23.200;2023-06-14T08:11:41;8.43;;;7.65;;
55467;SDS011;41332;42.702;23.200;2023-06-14T08:14:07;9.18;;;6.88;;
55467;SDS011;41332;42.702;23.200;2023-06-14T08:16:33;12.25;;;7.80;;
55467;SDS011;41332;42.702;23.200;2023-06-14T08:18:58;10.05;;;7.80;;
55467;SDS011;41332;42.702;23.200;2023-06-14T08:21:24;9.18;;;7.85;;
55467;SDS011;41332;42.702;23.200;2023-06-14T08:23:54;8.85;;;7.28;;
55467;SDS011;41332;42.702;23.200;2023-06-14T08:26:20;13.32;;;7.45;;
55467;SDS011;41332;42.702;23.200;2023-06-14T08:28:46;9.35;;;7.45;;
55467;SDS011;41332;42.702;23.200;2023-06-14T08:31:11;7.30;;;6.00;;
55467;SDS011;41332;42.702;23.200;2023-06-14T08:33:37;10.73;;;7.50;;
55467;SDS011;41332;42.702;23.200;2023-06-14T08:36:04;12.80;;;7.85;;
55467;SDS011;41332;42.702;23.200;2023-06-14T08:38:30;10.05;;;8.07;;
55467;SDS011;41332;42.702;23.200;2023-06-14T08:40:57;8.73;;;7.60;;
55467;SDS011;41332;42.702;23.200;2023-06-14T08:43:23;9.95;;;8.10;;
55467;SDS011;41332;42.702;23.200;2023-06-14T08:45:49;10.10;;;7.60;;
55467;SDS011;41332;42.702;23.200;2023-06-14T08:48:26;10.80;;;8.35;;
55467;SDS011;41332;42.702;23.200;2023-06-14T08:50:51;11.90;;;8.40;;
55467;SDS011;41332;42.702;23.200;2023-06-14T08:53:33;12.35;;;8.93;;
55467;SDS011;41332;42.702;23.200;2023-06-14T08:56:01;11.00;;;8.98;;
55467;SDS011;41332;42.702;23.200;2023-06-14T08:58:30;13.20;;;9.02;;
55467;SDS011;41332;42.702;23.200;2023-06-14T09:00:57;10.63;;;8.48;;
55467;SDS011;41332;42.702;23.200;2023-06-14T09:03:23;12.80;;;8.98;;
55467;SDS011;41332;42.702;23.200;2023-06-14T09:05:55;9.38;;;7.68;;
55467;SDS011;41332;42.702;23.200;2023-06-14T09:08:21;8.50;;;7.47;;
55467;SDS011;41332;42.702;23.200;2023-06-14T09:10:48;10.02;;;8.10;;
55467;SDS011;41332;42.702;23.200;2023-06-14T09:13:13;12.18;;;7.15;;
55467;SDS011;41332;42.702;23.200;2023-06-14T09:15:39;14.13;;;7.88;;
55467;SDS011;41332;42.702;23.200;2023-06-14T09:18:04;9.93;;;7.63;;
55467;SDS011;41332;42.702;23.200;2023-06-14T09:22:57;8.68;;;7.22;;
55467;SDS011;41332;42.702;23.200;2023-06-14T09:25:23;9.68;;;7.95;;
55467;SDS011;41332;42.702;23.200;2023-06-14T09:27:51;11.63;;;8.20;;
55467;SDS011;41332;42.702;23.200;2023-06-14T09:30:19;10.23;;;9.13;;
55467;SDS011;41332;42.702;23.200;2023-06-14T09:32:45;8.77;;;7.88;;
55467;SDS011;41332;42.702;23.200;2023-06-14T09:35:11;9.13;;;7.68;;
55467;SDS011;41332;42.702;23.200;2023-06-14T09:37:36;9.05;;;7.32;;
55467;SDS011;41332;42.702;23.200;2023-06-14T09:40:05;9.73;;;8.55;;
55467;SDS011;41332;42.702;23.200;2023-06-14T09:42:32;8.73;;;7.82;;
55467;SDS011;41332;42.702;23.200;2023-06-14T09:45:00;8.95;;;7.63;;
55467;SDS011;41332;42.702;23.200;2023-06-14T09:49:52;9.90;;;7.50;;
55467;SDS011;41332;42.702;23.200;2023-06-14T09:52:21;9.70;;;7.78;;
55467;SDS011;41332;42.702;23.200;2023-06-14T09:54:48;11.88;;;8.73;;
55467;SDS011;41332;42.702;23.200;2023-06-14T09:57:20;9.00;;;8.10;;
55467;SDS011;41332;42.702;23.200;2023-06-14T09:59:47;11.20;;;8.05;;
55467;SDS011;41332;42.702;23.200;2023-06-14T10:02:28;9.52;;;8.52;;
55467;SDS011;41332;42.702;23.200;2023-06-14T10:05:03;9.85;;;8.82;;
55467;SDS011;41332;42.702;23.200;2023-06-14T10:10:07;12.00;;;8.30;;
55467;SDS011;41332;42.702;23.200;2023-06-14T10:12:34;9.48;;;7.95;;
55467;SDS011;41332;42.702;23.200;2023-06-14T10:14:59;10.75;;;8.50;;
55467;SDS011;41332;42.702;23.200;2023-06-14T10:23:10;10.27;;;8.35;;
55467;SDS011;41332;42.702;23.200;2023-06-14T10:25:42;9.98;;;8.57;;
55467;SDS011;41332;42.702;23.200;2023-06-14T10:28:17;10.40;;;8.25;;
55467;SDS011;41332;42.702;23.200;2023-06-14T10:31:02;13.23;;;8.48;;
55467;SDS011;41332;42.702;23.200;2023-06-14T10:33:33;11.75;;;8.43;;
55467;SDS011;41332;42.702;23.200;2023-06-14T10:36:07;15.20;;;9.13;;
55467;SDS011;41332;42.702;23.200;2023-06-14T10:38:33;9.63;;;8.70;;
55467;SDS011;41332;42.702;23.200;2023-06-14T10:41:00;13.07;;;9.02;;
55467;SDS011;41332;42.702;23.200;2023-06-14T10:43:26;10.10;;;8.45;;
55467;SDS011;41332;42.702;23.200;2023-06-14T10:48:45;10.50;;;8.25;;
55467;SDS011;41332;42.702;23.200;2023-06-14T10:51:17;8.88;;;7.43;;
55467;SDS011;41332;42.702;23.200;2023-06-14T10:53:45;11.27;;;10.07;;
55467;SDS011;41332;42.702;23.200;2023-06-14T10:58:57;7.65;;;6.70;;
55467;SDS011;41332;42.702;23.200;2023-06-14T11:01:35;11.05;;;8.65;;
55467;SDS011;41332;42.702;23.200;2023-06-14T11:04:08;10.85;;;8.10;;
55467;SDS011;41332;42.702;23.200;2023-06-14T11:07:10;10.90;;;8.43;;
55467;SDS011;41332;42.702;23.200;2023-06-14T11:12:42;14.70;;;8.48;;
55467;SDS011;41332;42.702;23.200;2023-06-14T11:15:12;11.25;;;7.80;;
55467;SDS011;41332;42.702;23.200;2023-06-14T11:17:37;9.53;;;8.63;;
55467;SDS011;41332;42.702;23.200;2023-06-14T11:20:09;12.33;;;9.77;;
55467;SDS011;41332;42.702;23.200;2023-06-14T11:22:39;11.02;;;9.52;;
55467;SDS011;41332;42.702;23.200;2023-06-14T11:25:08;13.13;;;8.40;;
55467;SDS011;41332;42.702;23.200;2023-06-14T11:27:34;10.60;;;9.45;;
55467;SDS011;41332;42.702;23.200;2023-06-14T11:29:59;9.43;;;8.25;;
55467;SDS011;41332;42.702;23.200;2023-06-14T11:32:24;11.05;;;7.88;;
55467;SDS011;41332;42.702;23.200;2023-06-14T11:34:50;14.82;;;8.45;;
55467;SDS011;41332;42.702;23.200;2023-06-14T11:37:16;10.93;;;8.57;;
55467;SDS011;41332;42.702;23.200;2023-06-14T11:39:45;13.87;;;8.43;;
55467;SDS011;41332;42.702;23.200;2023-06-14T11:42:16;13.68;;;8.18;;
55467;SDS011;41332;42.702;23.200;2023-06-14T11:44:41;11.65;;;9.38;;
55467;SDS011;41332;42.702;23.200;2023-06-14T11:47:07;10.47;;;8.20;;
55467;SDS011;41332;42.702;23.200;2023-06-14T11:49:35;12.57;;;8.03;;
55467;SDS011;41332;42.702;23.200;2023-06-14T11:52:01;9.63;;;8.32;;
55467;SDS011;41332;42.702;23.200;2023-06-14T11:54:27;10.57;;;9.47;;
55467;SDS011;41332;42.702;23.200;2023-06-14T11:56:52;11.83;;;8.57;;
55467;SDS011;41332;42.702;23.200;2023-06-14T11:59:18;10.37;;;9.13;;
55467;SDS011;41332;42.702;23.200;2023-06-14T12:01:45;11.82;;;9.20;;
55467;SDS011;41332;42.702;23.200;2023-06-14T12:06:37;12.17;;;8.57;;
55467;SDS011;41332;42.702;23.200;2023-06-14T12:09:04;12.30;;;9.32;;
55467;SDS011;41332;42.702;23.200;2023-06-14T12:11:42;9.10;;;7.90;;
55467;SDS011;41332;42.702;23.200;2023-06-14T12:14:08;9.47;;;8.07;;
55467;SDS011;41332;42.702;23.200;2023-06-14T12:19:07;11.50;;;8.55;;
55467;SDS011;41332;42.702;23.200;2023-06-14T12:21:38;11.43;;;8.55;;
55467;SDS011;41332;42.702;23.200;2023-06-14T12:24:07;10.85;;;8.30;;
55467;SDS011;41332;42.702;23.200;2023-06-14T12:26:34;15.40;;;6.32;;
55467;SDS011;41332;42.702;23.200;2023-06-14T12:29:04;12.50;;;7.38;;
55467;SDS011;41332;42.702;23.200;2023-06-14T12:31:30;6.97;;;6.28;;
55467;SDS011;41332;42.702;23.200;2023-06-14T12:33:55;11.30;;;7.23;;
55467;SDS011;41332;42.702;23.200;2023-06-14T12:36:20;8.43;;;7.63;;
55467;SDS011;41332;42.702;23.200;2023-06-14T12:38:46;11.17;;;9.00;;
55467;SDS011;41332;42.702;23.200;2023-06-14T12:41:11;9.17;;;7.70;;
55467;SDS011;41332;42.702;23.200;2023-06-14T12:43:39;12.00;;;8.00;;
55467;SDS011;41332;42.702;23.200;2023-06-14T12:46:05;7.93;;;7.03;;
55467;SDS011;41332;42.702;23.200;2023-06-14T12:48:30;7.70;;;6.90;;
55467;SDS011;41332;42.702;23.200;2023-06-14T12:50:56;9.70;;;6.87;;
55467;SDS011;41332;42.702;23.200;2023-06-14T12:53:22;7.63;;;6.80;;
55467;SDS011;41332;42.702;23.200;2023-06-14T12:55:48;6.77;;;6.07;;
55467;SDS011;41332;42.702;23.200;2023-06-14T12:58:13;8.87;;;6.80;;
55467;SDS011;41332;42.702;23.200;2023-06-14T13:00:39;8.13;;;6.90;;
55467;SDS011;41332;42.702;23.200;2023-06-14T13:03:05;7.47;;;6.70;;
55467;SDS011;41332;42.702;23.200;2023-06-14T13:05:30;6.63;;;5.97;;
55467;SDS011;41332;42.702;23.200;2023-06-14T13:07:58;7.13;;;6.53;;
55467;SDS011;41332;42.702;23.200;2023-06-14T13:10:24;7.05;;;6.47;;
55467;SDS011;41332;42.702;23.200;2023-06-14T13:15:16;6.70;;;6.07;;
55467;SDS011;41332;42.702;23.200;2023-06-14T13:17:42;7.75;;;6.50;;
55467;SDS011;41332;42.702;23.200;2023-06-14T13:20:09;7.10;;;5.65;;
55467;SDS011;41332;42.702;23.200;2023-06-14T13:22:35;6.47;;;5.88;;
55467;SDS011;41332;42.702;23.200;2023-06-14T13:25:01;9.90;;;7.17;;
55467;SDS011;41332;42.702;23.200;2023-06-14T13:27:28;7.38;;;6.50;;
55467;SDS011;41332;42.702;23.200;2023-06-14T13:29:53;6.15;;;5.45;;
55467;SDS011;41332;42.702;23.200;2023-06-14T13:32:20;5.85;;;5.25;;
55467;SDS011;41332;42.702;23.200;2023-06-14T13:34:46;6.88;;;6.18;;
55467;SDS011;41332;42.702;23.200;2023-06-14T13:37:12;11.13;;;6.63;;
55467;SDS011;41332;42.702;23.200;2023-06-14T13:39:37;5.47;;;5.07;;
55467;SDS011;41332;42.702;23.200;2023-06-14T13:42:03;5.82;;;4.30;;
55467;SDS011;41332;42.702;23.200;2023-06-14T13:44:29;5.25;;;4.85;;
55467;SDS011;41332;42.702;23.200;2023-06-14T13:46:54;4.47;;;4.15;;
55467;SDS011;41332;42.702;23.200;2023-06-14T13:49:19;7.75;;;5.43;;
55467;SDS011;41332;42.702;23.200;2023-06-14T13:51:45;5.78;;;5.28;;
55467;SDS011;41332;42.702;23.200;2023-06-14T13:54:12;6.13;;;5.55;;
55467;SDS011;41332;42.702;23.200;2023-06-14T13:56:39;4.93;;;4.55;;
55467;SDS011;41332;42.702;23.200;2023-06-14T13:59:04;5.13;;;4.63;;
55467;SDS011;41332;42.702;23.200;2023-06-14T14:01:30;5.82;;;5.05;;
55467;SDS011;41332;42.702;23.200;2023-06-14T14:03:55;7.32;;;6.30;;
55467;SDS011;41332;42.702;23.200;2023-06-14T14:06:21;6.50;;;5.90;;
55467;SDS011;41332;42.702;23.200;2023-06-14T14:08:46;5.80;;;5.20;;
55467;SDS011;41332;42.702;23.200;2023-06-14T14:11:11;5.93;;;4.95;;
55467;SDS011;41332;42.702;23.200;2023-06-14T14:13:37;6.53;;;6.03;;
55467;SDS011;41332;42.702;23.200;2023-06-14T14:16:04;8.57;;;4.88;;
55467;SDS011;41332;42.702;23.200;2023-06-14T14:18:31;6.15;;;5.53;;
55467;SDS011;41332;42.702;23.200;2023-06-14T14:20:57;6.13;;;5.53;;
55467;SDS011;41332;42.702;23.200;2023-06-14T14:23:23;5.97;;;5.35;;
55467;SDS011;41332;42.702;23.200;2023-06-14T14:25:48;6.55;;;5.50;;
55467;SDS011;41332;42.702;23.200;2023-06-14T14:28:16;6.05;;;5.50;;
55467;SDS011;41332;42.702;23.200;2023-06-14T14:30:44;7.05;;;5.13;;
55467;SDS011;41332;42.702;23.200;2023-06-14T14:33:11;5.80;;;5.30;;
55467;SDS011;41332;42.702;23.200;2023-06-14T14:35:40;6.18;;;5.35;;
55467;SDS011;41332;42.702;23.200;2023-06-14T14:38:12;7.03;;;5.57;;
55467;SDS011;41332;42.702;23.200;2023-06-14T14:40:41;7.40;;;5.72;;
55467;SDS011;41332;42.702;23.200;2023-06-14T14:43:07;7.18;;;5.85;;
55467;SDS011;41332;42.702;23.200;2023-06-14T14:45:33;6.15;;;5.43;;
55467;SDS011;41332;42.702;23.200;2023-06-14T14:48:00;7.45;;;5.55;;
55467;SDS011;41332;42.702;23.200;2023-06-14T14:50:26;6.75;;;5.05;;
55467;SDS011;41332;42.702;23.200;2023-06-14T14:52:51;6.65;;;5.90;;
55467;SDS011;41332;42.702;23.200;2023-06-14T14:55:17;7.32;;;5.60;;
55467;SDS011;41332;42.702;23.200;2023-06-14T14:57:43;6.28;;;5.68;;
55467;SDS011;41332;42.702;23.200;2023-06-14T15:00:09;7.65;;;6.55;;
55467;SDS011;41332;42.702;23.200;2023-06-14T15:02:35;8.52;;;6.25;;
55467;SDS011;41332;42.702;23.200;2023-06-14T15:05:00;6.50;;;5.82;;
55467;SDS011;41332;42.702;23.200;2023-06-14T15:07:27;6.13;;;5.50;;
55467;SDS011;41332;42.702;23.200;2023-06-14T15:09:53;8.63;;;6.38;;
55467;SDS011;41332;42.702;23.200;2023-06-14T15:12:19;8.47;;;6.87;;
55467;SDS011;41332;42.702;23.200;2023-06-14T15:14:45;7.13;;;6.43;;